الصفحة الرئيسية
METAR-TAF:

METAR-TAF

مطار :

مطار ليوبولد سيدار سنغور الدولي

دكار, السنغال

دائرة عرض: 14-44N, خط طول: 017-30W, ارتفاع: 27 متر

مراقبة الطقس الحالي

تاريخ ووقت الإصدار 56 دقيقة قبل الساعة 10:00UTC
ريح 10 عقدة من الشمال/الشمال الشرقي
درجة الحرارة 25°درجة مئوية
الرطوبة 44%
ضغط 1016 hPa
الرؤية 10 كم أو أكثر
غيوم مفككة على ارتفاع 1300 قدم

METAR: GOOY 141000Z 02010KT 9999 BKN013 25/12 Q1016

زمن: 10:56 (10:56 UTC)

توقعات

تاريخ ووقت الإصدار 5ساعات و 26 دقيقة قبل الساعة 05:30UTC
التوقعات صالحة من14 الساعة 06 UTC إلى 15 الساعة 12 UTC
ريح 12 عقدة من الشمال/الشمال الشرقي
الرؤية 10 كم أو أكثر
الغيوم لا تقل 1500 م ولا وجود لمزنة ركامية السحاب الأسود

TAF: GOOY 140530Z 1406/1512 03012KT CAVOK

أرصاد الطقس والتوقعات من أكثر من 4000 مطار (تقارير الطقس للمطار METAR والتنبؤ بالطقس بالمطارTAF).

المحطات المتاحة هي النقط الصفراء والحمراء على الخريطة.

حرك المؤشر فوق النقطة لمعرفة اسم المحطة.

ثم انقر لمعرفة أرصاد وتوقعات الطقس.

لتغيير الخارطة: اضغط على الأزرار الخضراء مع رمز الصليب الأسود للتكبير. على الزر الأخضر مع شرطة للتصغير، أو على الأسهم الخضراء للخرائط المجاورة.


METAR-TAF: